Time;durP1;ratioP1;P1;durP2;ratioP2;P2;SDS_P1;SDS_P2;PMS_P1;PMS_P2;Temp;Humidity;BMP_temperature;BMP_pressure;BME280_temperature;BME280_humidity;BME280_pressure;Samples;Min_cycle;Max_cycle;Signal;HPM_P1;HPM_P2
2024/01/23 00:01:19;;;;;;;22.77;4.70;;;7.30;99.90;;;;;;4872561;29;20069;-76
2024/01/23 00:03:44;;;;;;;16.55;2.15;;;7.20;99.90;;;;;;4865501;29;20046;-76
2024/01/23 00:06:10;;;;;;;24.38;5.07;;;7.20;99.90;;;;;;4868240;29;20509;-76
2024/01/23 00:08:36;;;;;;;11.23;2.25;;;7.20;99.90;;;;;;4851347;29;20044;-75
2024/01/23 00:11:01;;;;;;;14.82;2.60;;;7.20;99.90;;;;;;4861370;29;20262;-75
2024/01/23 00:13:27;;;;;;;10.98;1.80;;;7.10;99.90;;;;;;4879524;29;20442;-75
2024/01/23 00:15:53;;;;;;;15.30;2.38;;;7.10;99.90;;;;;;4871153;29;20056;-75
2024/01/23 00:18:18;;;;;;;19.38;4.38;;;7.00;99.90;;;;;;4876383;29;20499;-76
2024/01/23 00:20:46;;;;;;;9.45;2.10;;;7.10;99.90;;;;;;4865637;29;20060;-75
2024/01/23 00:23:12;;;;;;;24.02;5.50;;;7.10;99.90;;;;;;4871553;29;20052;-76
2024/01/23 00:25:38;;;;;;;20.75;4.38;;;7.10;99.90;;;;;;4856104;29;20057;-76
2024/01/23 00:28:05;;;;;;;14.43;1.75;;;7.10;99.90;;;;;;4867573;29;20051;-76
2024/01/23 00:30:31;;;;;;;25.58;4.82;;;7.10;99.90;;;;;;4881677;29;20041;-76
2024/01/23 00:32:58;;;;;;;22.83;1.80;;;7.20;99.90;;;;;;4871669;29;20060;-75
2024/01/23 00:35:24;;;;;;;22.05;5.28;;;7.20;99.90;;;;;;4882684;29;20140;-76
2024/01/23 00:37:50;;;;;;;12.90;2.00;;;7.20;99.90;;;;;;4880423;29;20458;-76
2024/01/23 00:40:15;;;;;;;17.02;4.60;;;7.30;99.90;;;;;;4855107;29;20062;-76
2024/01/23 00:42:41;;;;;;;15.15;1.88;;;7.30;99.90;;;;;;4887237;29;20120;-76
2024/01/23 00:45:08;;;;;;;7.80;1.55;;;7.30;99.90;;;;;;4846902;29;20599;-76
2024/01/23 00:47:33;;;;;;;14.07;2.67;;;7.20;99.90;;;;;;4877471;29;20049;-76
2024/01/23 00:49:59;;;;;;;9.85;1.88;;;7.20;99.90;;;;;;4857971;29;20747;-76
2024/01/23 00:52:25;;;;;;;17.27;3.97;;;7.20;99.90;;;;;;4849207;29;20041;-75
2024/01/23 00:54:50;;;;;;;18.92;4.60;;;7.10;99.90;;;;;;4847194;29;20086;-76
2024/01/23 00:57:16;;;;;;;19.50;4.57;;;7.20;99.90;;;;;;4849833;29;20395;-75
2024/01/23 00:59:41;;;;;;;12.50;2.33;;;7.20;99.90;;;;;;4850536;29;20657;-76
2024/01/23 01:02:07;;;;;;;19.60;1.60;;;7.10;99.90;;;;;;4852072;29;20753;-76
2024/01/23 01:04:33;;;;;;;11.20;2.10;;;7.10;99.90;;;;;;4856679;29;20049;-76
2024/01/23 01:06:59;;;;;;;18.70;4.32;;;7.00;99.90;;;;;;4855747;29;20057;-76
2024/01/23 01:09:25;;;;;;;13.75;2.70;;;7.00;99.90;;;;;;4889882;29;20039;-76
2024/01/23 01:11:51;;;;;;;18.88;4.20;;;7.10;99.90;;;;;;4871939;29;20054;-75
2024/01/23 01:14:16;;;;;;;10.73;2.15;;;7.00;99.90;;;;;;4885467;29;20036;-75
2024/01/23 01:16:42;;;;;;;11.82;2.28;;;7.00;99.90;;;;;;4880426;29;20036;-75
2024/01/23 01:19:08;;;;;;;14.85;1.98;;;7.00;99.90;;;;;;4851688;29;20068;-75
2024/01/23 01:21:33;;;;;;;13.05;2.28;;;7.00;99.90;;;;;;4864547;29;20104;-76
2024/01/23 01:24:00;;;;;;;14.68;2.72;;;7.00;99.90;;;;;;4873830;29;20156;-76
2024/01/23 01:26:25;;;;;;;14.57;1.83;;;6.90;99.90;;;;;;4869740;29;20508;-76
2024/01/23 01:28:51;;;;;;;18.08;3.90;;;6.90;99.90;;;;;;4858237;29;20041;-76
2024/01/23 01:31:17;;;;;;;17.20;3.38;;;6.90;99.90;;;;;;4852544;29;20087;-75
2024/01/23 01:33:43;;;;;;;20.58;5.05;;;7.00;99.90;;;;;;4879424;29;20068;-75
2024/01/23 01:36:08;;;;;;;21.50;4.28;;;7.00;99.90;;;;;;4881209;29;20113;-76
2024/01/23 01:38:34;;;;;;;15.27;2.13;;;7.00;99.90;;;;;;4891885;29;20096;-77
2024/01/23 01:40:59;;;;;;;13.13;1.73;;;7.00;99.90;;;;;;4861117;29;20091;-77
2024/01/23 01:43:27;;;;;;;17.75;4.45;;;7.00;99.90;;;;;;4894551;29;20657;-76
2024/01/23 01:46:15;;;;;;;10.20;2.33;;;7.00;99.90;;;;;;4881291;29;20045;-76
2024/01/23 01:48:42;;;;;;;18.83;4.20;;;7.00;99.90;;;;;;4893612;29;20057;-75
2024/01/23 01:51:09;;;;;;;12.65;1.05;;;7.10;99.90;;;;;;4882707;29;20084;-76
2024/01/23 01:53:35;;;;;;;16.55;4.38;;;7.10;99.90;;;;;;4878095;29;20045;-76
2024/01/23 01:56:06;;;;;;;18.67;4.88;;;7.10;99.90;;;;;;4849630;29;20056;-76
2024/01/23 01:58:33;;;;;;;17.23;2.22;;;7.10;99.90;;;;;;4857317;29;20056;-76
2024/01/23 02:01:00;;;;;;;11.43;2.13;;;7.20;99.90;;;;;;4885586;29;20600;-76
2024/01/23 02:03:27;;;;;;;8.35;2.05;;;7.20;99.90;;;;;;4885407;29;20052;-76
2024/01/23 02:05:53;;;;;;;18.38;5.35;;;7.20;99.90;;;;;;4861152;29;20057;-75
2024/01/23 02:08:19;;;;;;;11.93;1.65;;;7.10;99.90;;;;;;4862604;29;20049;-76
2024/01/23 02:10:45;;;;;;;27.40;3.55;;;7.20;99.90;;;;;;4878159;29;20055;-76
2024/01/23 02:13:10;;;;;;;20.70;4.55;;;7.10;99.90;;;;;;4860032;29;20637;-76
2024/01/23 02:15:36;;;;;;;11.70;2.75;;;7.20;99.90;;;;;;4864748;29;20041;-76
2024/01/23 02:18:02;;;;;;;24.88;5.43;;;7.20;99.90;;;;;;4879786;29;20081;-76
2024/01/23 02:20:28;;;;;;;10.50;2.03;;;7.10;99.90;;;;;;4883499;29;20462;-76
2024/01/23 02:22:54;;;;;;;12.73;2.10;;;7.10;99.90;;;;;;4886161;29;20080;-76
2024/01/23 02:25:20;;;;;;;24.35;5.03;;;7.10;99.90;;;;;;4854629;29;20091;-76
2024/01/23 02:27:45;;;;;;;9.98;2.10;;;7.00;99.90;;;;;;4860555;29;20161;-75
2024/01/23 02:30:12;;;;;;;20.67;4.93;;;7.00;99.90;;;;;;4854822;29;20133;-75
2024/01/23 02:32:42;;;;;;;24.63;5.63;;;6.90;99.90;;;;;;4867501;29;20048;-76
2024/01/23 02:35:08;;;;;;;25.05;5.60;;;6.90;99.90;;;;;;4893516;29;20124;-76
2024/01/23 02:37:33;;;;;;;22.17;5.18;;;6.90;99.90;;;;;;4864215;29;20069;-76
2024/01/23 02:39:59;;;;;;;22.00;4.72;;;6.90;99.90;;;;;;4882053;29;20406;-75
2024/01/23 02:42:24;;;;;;;21.35;4.30;;;6.90;99.90;;;;;;4882343;29;20108;-76
2024/01/23 02:44:50;;;;;;;20.38;4.82;;;6.80;99.90;;;;;;4865697;29;20063;-76
2024/01/23 02:47:16;;;;;;;15.60;2.10;;;6.80;99.90;;;;;;4877217;29;20056;-76
2024/01/23 02:49:41;;;;;;;13.88;2.45;;;6.80;99.90;;;;;;4855803;29;20045;-76
2024/01/23 02:52:07;;;;;;;20.38;5.00;;;6.80;99.90;;;;;;4853140;29;20053;-76
2024/01/23 02:54:33;;;;;;;15.18;2.72;;;6.70;99.90;;;;;;4884142;29;20037;-76
2024/01/23 02:56:59;;;;;;;15.10;2.65;;;6.70;99.90;;;;;;4876840;29;20063;-75
2024/01/23 02:59:24;;;;;;;12.40;2.03;;;6.70;99.90;;;;;;4875685;29;20045;-75
2024/01/23 03:01:50;;;;;;;21.00;5.03;;;6.60;99.90;;;;;;4846427;29;20081;-75
2024/01/23 03:04:15;;;;;;;13.20;2.17;;;6.60;99.90;;;;;;4876978;29;20097;-76
2024/01/23 03:06:41;;;;;;;16.05;2.58;;;6.60;99.90;;;;;;4870081;29;20684;-76
2024/01/23 03:09:10;;;;;;;8.88;1.80;;;6.60;99.90;;;;;;4872727;29;20045;-76
2024/01/23 03:11:36;;;;;;;21.77;4.82;;;6.50;99.90;;;;;;4880866;29;20057;-76
2024/01/23 03:14:02;;;;;;;11.85;1.85;;;6.50;99.90;;;;;;4872892;29;20136;-76
2024/01/23 03:16:28;;;;;;;9.10;2.10;;;6.50;99.90;;;;;;4881787;29;20112;-76
2024/01/23 03:18:53;;;;;;;20.88;5.28;;;6.40;99.90;;;;;;4878459;29;20053;-76
2024/01/23 03:21:19;;;;;;;17.67;5.13;;;6.40;99.90;;;;;;4891969;29;20045;-75
2024/01/23 03:23:45;;;;;;;17.30;2.03;;;6.50;99.90;;;;;;4876972;29;20387;-76
2024/01/23 03:26:10;;;;;;;19.95;4.80;;;6.40;99.90;;;;;;4876257;29;20135;-76
2024/01/23 03:28:36;;;;;;;23.25;5.18;;;6.40;99.90;;;;;;4873030;29;20045;-76
2024/01/23 03:31:02;;;;;;;13.40;2.00;;;6.40;99.90;;;;;;4902387;29;20473;-75
2024/01/23 03:33:27;;;;;;;22.60;5.13;;;6.50;99.90;;;;;;4879982;29;20552;-76
2024/01/23 03:35:53;;;;;;;14.05;2.20;;;6.40;99.90;;;;;;4865478;29;20116;-76
2024/01/23 03:38:19;;;;;;;17.15;2.67;;;6.50;99.90;;;;;;4881281;29;20048;-76
2024/01/23 03:40:44;;;;;;;14.98;3.35;;;6.50;99.90;;;;;;4877563;29;20525;-76
2024/01/23 03:43:10;;;;;;;11.38;2.40;;;6.50;99.90;;;;;;4864608;29;20053;-76
2024/01/23 03:45:35;;;;;;;16.75;2.28;;;6.50;99.90;;;;;;4850094;29;20382;-76
2024/01/23 03:48:03;;;;;;;24.17;6.07;;;6.60;99.90;;;;;;4884396;29;20485;-76
2024/01/23 03:50:29;;;;;;;;;;;6.60;99.90;;;;;;4869755;29;20061;-76
2024/01/23 03:52:55;;;;;;;16.73;2.78;;;6.60;99.90;;;;;;4864432;29;19920;-76
2024/01/23 03:55:21;;;;;;;13.07;2.15;;;6.60;99.90;;;;;;4865791;29;20140;-76
2024/01/23 03:57:47;;;;;;;13.18;2.03;;;6.60;99.90;;;;;;4884098;29;20060;-76
2024/01/23 04:00:15;;;;;;;20.65;3.88;;;6.70;99.90;;;;;;4869209;29;20379;-76
2024/01/23 04:02:41;;;;;;;8.65;2.00;;;6.60;99.90;;;;;;4897381;29;20489;-76
2024/01/23 04:05:07;;;;;;;14.48;2.55;;;6.70;99.90;;;;;;4879918;29;20045;-75
2024/01/23 04:07:34;;;;;;;11.55;2.00;;;6.70;99.90;;;;;;4875911;29;20100;-76
2024/01/23 04:10:00;;;;;;;15.27;3.05;;;6.70;99.90;;;;;;4864962;29;20052;-76
2024/01/23 04:12:26;;;;;;;14.32;2.40;;;6.70;99.90;;;;;;4882988;29;20081;-76
2024/01/23 04:14:52;;;;;;;23.98;5.35;;;6.70;99.90;;;;;;4872230;29;20163;-75
2024/01/23 04:17:17;;;;;;;15.35;4.00;;;6.80;99.90;;;;;;4889604;29;20041;-76
2024/01/23 04:19:43;;;;;;;18.52;2.60;;;6.70;99.90;;;;;;4851611;29;20128;-75
2024/01/23 04:22:10;;;;;;;13.15;1.70;;;6.70;99.90;;;;;;4855194;29;20049;-76
2024/01/23 04:24:42;;;;;;;16.80;2.85;;;6.90;99.90;;;;;;4854149;29;20117;-76
2024/01/23 04:27:08;;;;;;;26.08;5.70;;;6.80;99.90;;;;;;4857097;29;20055;-75
2024/01/23 04:29:33;;;;;;;15.25;2.40;;;6.80;99.90;;;;;;4855689;29;20040;-75
2024/01/23 04:31:59;;;;;;;15.75;3.22;;;6.80;99.90;;;;;;4895892;29;20049;-76
2024/01/23 04:34:25;;;;;;;23.45;3.88;;;6.80;99.90;;;;;;4858474;29;20045;-75
2024/01/23 04:36:50;;;;;;;13.45;2.72;;;6.80;99.90;;;;;;4877079;29;20044;-75
2024/01/23 04:39:16;;;;;;;13.10;2.22;;;6.80;99.90;;;;;;4852622;29;20050;-75
2024/01/23 04:41:42;;;;;;;13.18;2.50;;;6.80;99.90;;;;;;4855458;29;20416;-76
2024/01/23 04:44:09;;;;;;;22.73;5.35;;;6.90;99.90;;;;;;4860699;29;20049;-75
2024/01/23 04:46:34;;;;;;;17.38;2.55;;;6.90;99.90;;;;;;4863902;29;20120;-75
2024/01/23 04:49:00;;;;;;;25.77;5.70;;;7.00;99.90;;;;;;4877620;29;20177;-76
2024/01/23 04:51:26;;;;;;;16.70;2.13;;;7.00;99.90;;;;;;4859137;29;20390;-75
2024/01/23 04:53:52;;;;;;;13.15;2.92;;;7.00;99.90;;;;;;4879359;29;20517;-76
2024/01/23 04:56:18;;;;;;;17.55;2.53;;;7.00;99.90;;;;;;4863360;29;20508;-75
2024/01/23 04:58:44;;;;;;;16.87;2.60;;;6.90;99.90;;;;;;4868275;29;20052;-76
2024/01/23 05:01:10;;;;;;;22.08;5.97;;;7.00;99.90;;;;;;4885649;29;20043;-76
2024/01/23 05:03:35;;;;;;;23.13;5.72;;;7.00;99.90;;;;;;4862980;29;20038;-76
2024/01/23 05:06:01;;;;;;;9.75;2.30;;;7.00;99.90;;;;;;4872698;29;20044;-76
2024/01/23 05:08:27;;;;;;;17.98;2.13;;;7.00;99.90;;;;;;4873775;29;20441;-76
2024/01/23 05:10:52;;;;;;;13.32;2.72;;;6.90;99.90;;;;;;4891347;29;20490;-76
2024/01/23 05:13:18;;;;;;;11.57;2.17;;;6.90;99.90;;;;;;4872863;29;20478;-76
2024/01/23 05:15:43;;;;;;;26.65;5.65;;;6.80;99.90;;;;;;4861067;29;20413;-76
2024/01/23 05:18:09;;;;;;;27.77;6.10;;;6.90;99.90;;;;;;4846685;29;20057;-76
2024/01/23 05:20:36;;;;;;;16.88;2.50;;;6.80;99.90;;;;;;4848672;29;20141;-76
2024/01/23 05:23:03;;;;;;;24.98;5.65;;;6.90;99.90;;;;;;4847917;29;20049;-75
2024/01/23 05:25:29;;;;;;;26.45;6.47;;;6.90;99.90;;;;;;4862727;29;20069;-75
2024/01/23 05:27:55;;;;;;;21.45;4.03;;;6.90;99.90;;;;;;4867040;29;20446;-75
2024/01/23 05:30:21;;;;;;;27.73;6.43;;;6.80;99.90;;;;;;4874338;29;20514;-75
2024/01/23 05:32:47;;;;;;;29.15;6.43;;;6.80;99.90;;;;;;4868982;29;20053;-76
2024/01/23 05:35:13;;;;;;;21.15;2.67;;;6.90;99.90;;;;;;4876561;29;20056;-76
2024/01/23 05:37:39;;;;;;;29.50;6.18;;;6.90;99.90;;;;;;4857855;29;20045;-75
2024/01/23 05:40:09;;;;;;;27.67;6.28;;;6.90;99.90;;;;;;4873166;29;20147;-75
2024/01/23 05:42:35;;;;;;;13.15;2.10;;;7.00;99.90;;;;;;4890044;29;20049;-75
2024/01/23 05:45:00;;;;;;;13.73;2.72;;;7.00;99.90;;;;;;4849846;29;20063;-76
2024/01/23 05:47:26;;;;;;;17.83;2.70;;;7.00;99.90;;;;;;4879189;29;20040;-75
2024/01/23 05:49:52;;;;;;;24.25;6.63;;;7.00;99.90;;;;;;4891887;29;20041;-75
2024/01/23 05:52:17;;;;;;;17.70;2.97;;;7.00;99.90;;;;;;4879668;29;20042;-76
2024/01/23 05:54:44;;;;;;;31.27;7.43;;;6.90;99.90;;;;;;4852918;29;20055;-76
2024/01/23 05:57:10;;;;;;;19.10;3.97;;;6.90;99.90;;;;;;4858598;29;20048;-75
2024/01/23 05:59:36;;;;;;;17.67;3.20;;;6.80;99.90;;;;;;4860861;29;20080;-76
2024/01/23 06:02:04;;;;;;;17.83;3.05;;;6.80;99.90;;;;;;4876225;29;20103;-75
2024/01/23 06:04:29;;;;;;;;;;;6.80;99.90;;;;;;4877316;29;20098;-76
2024/01/23 06:06:55;;;;;;;12.40;2.63;;;6.80;99.90;;;;;;4872899;29;20375;-76
2024/01/23 06:09:21;;;;;;;34.80;7.57;;;6.80;99.90;;;;;;4873392;29;20056;-75
2024/01/23 06:11:47;;;;;;;25.30;6.30;;;6.80;99.90;;;;;;4868679;29;20048;-76
2024/01/23 06:14:12;;;;;;;28.40;7.07;;;6.80;99.90;;;;;;4884235;29;20050;-76
2024/01/23 06:16:38;;;;;;;32.45;7.35;;;6.90;99.90;;;;;;4873393;29;20030;-76
2024/01/23 06:19:07;;;;;;;17.33;2.90;;;6.90;99.90;;;;;;4861924;29;20051;-76
2024/01/23 06:21:32;;;;;;;12.15;3.42;;;6.80;99.90;;;;;;4871968;29;20406;-76
2024/01/23 06:23:58;;;;;;;18.50;3.85;;;6.70;99.90;;;;;;4875420;29;20037;-76
2024/01/23 06:26:24;;;;;;;13.50;2.40;;;6.80;99.90;;;;;;4868552;29;20139;-76
2024/01/23 06:28:49;;;;;;;18.55;3.20;;;6.80;99.90;;;;;;4873620;29;20043;-76
2024/01/23 06:31:15;;;;;;;31.92;6.97;;;6.80;99.90;;;;;;4879184;29;20755;-76
2024/01/23 06:33:41;;;;;;;27.98;6.72;;;6.80;99.90;;;;;;4877121;29;20044;-76
2024/01/23 06:36:07;;;;;;;31.58;8.02;;;6.90;99.90;;;;;;4865349;29;20045;-76
2024/01/23 06:38:34;;;;;;;35.55;8.02;;;6.80;99.90;;;;;;4856880;29;20101;-76
2024/01/23 06:41:00;;;;;;;34.60;7.68;;;6.90;99.90;;;;;;4877846;29;20463;-75
2024/01/23 06:43:25;;;;;;;35.85;6.95;;;6.90;99.90;;;;;;4884533;29;20123;-79
2024/01/23 06:45:51;;;;;;;34.58;8.15;;;6.90;99.90;;;;;;4854968;29;20097;-75
2024/01/23 06:48:16;;;;;;;28.20;7.38;;;6.90;99.90;;;;;;4857653;29;20595;-75
2024/01/23 06:50:44;;;;;;;30.80;7.40;;;6.80;99.90;;;;;;4855776;29;20886;-74
2024/01/23 06:53:10;;;;;;;37.08;7.35;;;7.00;99.90;;;;;;4860688;29;20536;-73
2024/01/23 06:55:35;;;;;;;20.13;3.53;;;7.00;99.90;;;;;;4891592;29;20172;-74
2024/01/23 06:58:01;;;;;;;23.23;3.83;;;6.90;99.90;;;;;;4853136;29;20037;-74
2024/01/23 07:00:27;;;;;;;20.50;3.53;;;6.90;99.90;;;;;;4898241;29;20135;-73
2024/01/23 07:02:53;;;;;;;30.70;6.78;;;6.90;99.90;;;;;;4860999;29;20086;-73
2024/01/23 07:05:18;;;;;;;28.08;7.10;;;6.90;99.90;;;;;;4866662;29;20127;-73
2024/01/23 07:07:44;;;;;;;18.27;2.92;;;6.90;99.90;;;;;;4875924;29;20187;-73
2024/01/23 07:10:10;;;;;;;28.55;4.03;;;6.90;99.90;;;;;;4876636;29;20462;-73
2024/01/23 07:12:36;;;;;;;32.80;7.45;;;6.90;99.90;;;;;;4856822;29;20660;-73
2024/01/23 07:15:01;;;;;;;18.67;3.13;;;6.90;99.90;;;;;;4871656;29;20640;-74
2024/01/23 07:17:27;;;;;;;29.58;7.20;;;6.90;99.90;;;;;;4892932;29;20053;-73
2024/01/23 07:19:54;;;;;;;11.13;3.03;;;6.90;99.90;;;;;;4860526;29;20536;-73
2024/01/23 07:22:20;;;;;;;35.17;6.93;;;6.90;99.90;;;;;;4879072;29;20049;-73
2024/01/23 07:24:45;;;;;;;35.13;7.75;;;7.00;99.90;;;;;;4855497;29;20053;-74
2024/01/23 07:27:11;;;;;;;31.85;8.00;;;7.00;99.90;;;;;;4875244;29;20052;-73
2024/01/23 07:29:38;;;;;;;28.95;7.22;;;7.00;99.90;;;;;;4871290;29;20069;-73
2024/01/23 07:32:05;;;;;;;23.33;3.88;;;7.00;99.90;;;;;;4864596;29;20057;-73
2024/01/23 07:34:31;;;;;;;19.50;3.00;;;7.00;99.90;;;;;;4858980;29;20056;-73
2024/01/23 07:36:56;;;;;;;33.20;7.63;;;6.90;99.90;;;;;;4868088;29;20048;-73
2024/01/23 07:39:23;;;;;;;21.95;3.60;;;6.90;99.90;;;;;;4868596;29;20757;-74
2024/01/23 07:41:49;;;;;;;20.00;3.65;;;6.90;99.90;;;;;;4865229;29;20417;-73
2024/01/23 07:44:14;;;;;;;30.98;7.15;;;6.90;99.90;;;;;;4874650;29;20486;-73
2024/01/23 07:46:40;;;;;;;19.85;3.65;;;6.90;99.90;;;;;;4876600;29;20057;-73
2024/01/23 07:49:05;;;;;;;31.63;6.95;;;6.90;99.90;;;;;;4857024;29;20041;-74
2024/01/23 07:51:47;;;;;;;18.35;3.70;;;6.90;99.90;;;;;;4879698;29;20041;-74
2024/01/23 07:54:13;;;;;;;30.63;7.18;;;6.90;99.90;;;;;;4875963;29;20068;-73
2024/01/23 07:56:39;;;;;;;32.00;7.28;;;6.90;99.90;;;;;;4896514;29;20121;-73
2024/01/23 07:59:05;;;;;;;29.48;4.10;;;6.90;99.90;;;;;;4860339;29;20056;-73
2024/01/23 08:01:31;;;;;;;31.05;7.38;;;6.80;99.90;;;;;;4870814;29;20041;-73
2024/01/23 08:03:57;;;;;;;23.90;3.35;;;6.80;99.90;;;;;;4856663;29;20060;-72
2024/01/23 08:06:23;;;;;;;25.35;3.55;;;6.80;99.90;;;;;;4871193;29;20045;-73
2024/01/23 08:08:50;;;;;;;35.72;7.97;;;6.80;99.90;;;;;;4864868;29;20087;-73
2024/01/23 08:11:16;;;;;;;13.43;3.13;;;6.80;99.90;;;;;;4860286;29;20049;-74
2024/01/23 08:13:42;;;;;;;20.35;2.83;;;6.80;99.90;;;;;;4859871;29;20133;-73
2024/01/23 08:16:08;;;;;;;36.65;7.95;;;6.70;99.90;;;;;;4866408;29;20073;-74
2024/01/23 08:18:35;;;;;;;31.87;7.33;;;6.80;99.90;;;;;;4871310;29;20135;-77
2024/01/23 08:21:00;;;;;;;31.77;7.10;;;6.80;99.90;;;;;;4866741;29;20643;-76
2024/01/23 08:23:26;;;;;;;24.35;2.60;;;6.70;99.90;;;;;;4870735;29;20131;-79
2024/01/23 08:25:51;;;;;;;20.05;2.83;;;6.70;99.90;;;;;;4854861;29;20045;-80
2024/01/23 08:28:17;;;;;;;36.00;7.20;;;6.60;99.90;;;;;;4864311;29;20066;-79
2024/01/23 08:30:43;;;;;;;21.70;3.00;;;6.60;99.90;;;;;;4845782;29;20128;-79
2024/01/23 08:33:12;;;;;;;20.13;3.80;;;6.50;99.90;;;;;;4871234;29;20080;-79
2024/01/23 08:35:38;;;;;;;20.77;3.60;;;6.50;99.90;;;;;;4851016;29;20065;-80
2024/01/23 08:38:03;;;;;;;23.25;3.33;;;6.50;99.90;;;;;;4858962;29;20045;-77
2024/01/23 08:40:29;;;;;;;28.33;3.65;;;6.40;99.90;;;;;;4848918;29;20066;-79
2024/01/23 08:42:55;;;;;;;20.13;3.10;;;6.40;99.90;;;;;;4857194;29;20537;-79
2024/01/23 08:45:20;;;;;;;39.47;7.75;;;6.40;99.90;;;;;;4863008;29;20073;-77
2024/01/23 08:47:46;;;;;;;22.33;3.28;;;6.50;99.90;;;;;;4888547;29;20124;-80
2024/01/23 08:50:11;;;;;;;22.20;3.40;;;6.40;99.90;;;;;;4881042;29;20059;-75
2024/01/23 08:52:37;;;;;;;20.15;3.10;;;6.40;99.90;;;;;;4860033;29;20404;-76
2024/01/23 08:55:03;;;;;;;29.42;7.50;;;6.40;99.90;;;;;;4841885;29;20432;-78
2024/01/23 08:57:29;;;;;;;28.77;6.10;;;6.50;99.90;;;;;;4839848;29;20053;-73
2024/01/23 08:59:54;;;;;;;23.05;3.05;;;6.40;99.90;;;;;;4867975;29;20109;-73
2024/01/23 09:02:20;;;;;;;35.75;7.35;;;6.40;99.90;;;;;;4862783;29;20394;-74
2024/01/23 09:04:46;;;;;;;30.20;7.25;;;6.50;99.90;;;;;;4859049;29;20093;-74
2024/01/23 09:07:12;;;;;;;30.55;4.00;;;6.50;99.90;;;;;;4849464;29;20050;-76
2024/01/23 09:09:38;;;;;;;31.27;3.97;;;6.50;99.90;;;;;;4868897;29;20050;-76
2024/01/23 09:12:04;;;;;;;37.65;8.18;;;6.50;99.90;;;;;;4865116;29;20093;-76
2024/01/23 09:14:30;;;;;;;34.58;8.10;;;6.50;99.90;;;;;;4866470;29;20046;-76
2024/01/23 09:16:55;;;;;;;22.10;3.65;;;6.60;99.90;;;;;;4849825;29;20550;-75
2024/01/23 09:19:21;;;;;;;35.78;8.13;;;6.60;99.90;;;;;;4849825;29;20053;-76
2024/01/23 09:21:47;;;;;;;33.72;7.10;;;6.60;99.90;;;;;;4852477;29;20140;-75
2024/01/23 09:24:12;;;;;;;37.80;8.57;;;6.70;99.90;;;;;;4842819;29;20057;-74
2024/01/23 09:26:38;;;;;;;37.03;7.55;;;6.70;99.90;;;;;;4877195;29;20057;-74
2024/01/23 09:29:04;;;;;;;29.63;3.75;;;6.80;99.90;;;;;;4875879;29;20071;-74
2024/01/23 09:31:30;;;;;;;20.75;3.08;;;6.70;99.90;;;;;;4877070;29;20481;-74
2024/01/23 09:33:57;;;;;;;36.70;8.60;;;6.70;99.90;;;;;;4870758;29;20076;-73
2024/01/23 09:36:22;;;;;;;31.15;8.15;;;6.70;99.90;;;;;;4868613;29;20533;-75
2024/01/23 09:38:48;;;;;;;34.40;8.63;;;6.80;99.90;;;;;;4865855;29;20136;-74
2024/01/23 09:41:14;;;;;;;34.58;7.75;;;6.90;99.90;;;;;;4852302;29;20053;-74
2024/01/23 09:43:46;;;;;;;29.20;4.72;;;6.90;99.90;;;;;;4867926;29;20041;-74
2024/01/23 09:46:13;;;;;;;25.33;3.60;;;6.90;99.90;;;;;;4853057;29;20112;-74
2024/01/23 09:48:40;;;;;;;19.55;3.53;;;6.90;99.90;;;;;;4868473;29;20051;-74
2024/01/23 09:51:12;;;;;;;19.30;3.03;;;6.90;99.90;;;;;;4866614;29;20042;-74
2024/01/23 09:53:41;;;;;;;37.03;8.43;;;6.90;99.90;;;;;;4844920;29;20545;-74
2024/01/23 09:56:08;;;;;;;23.35;3.00;;;7.00;99.90;;;;;;4863453;29;20072;-74
2024/01/23 09:58:35;;;;;;;22.67;3.33;;;7.00;99.90;;;;;;4876728;29;20056;-74
2024/01/23 10:01:01;;;;;;;22.50;3.13;;;7.10;99.90;;;;;;4867064;29;20124;-74
2024/01/23 10:03:27;;;;;;;23.60;3.55;;;7.00;99.90;;;;;;4862289;29;20041;-74
2024/01/23 10:05:53;;;;;;;29.15;8.00;;;7.00;99.90;;;;;;4855486;29;20053;-74
2024/01/23 10:08:22;;;;;;;34.15;7.00;;;7.10;99.90;;;;;;4861596;29;20517;-74
2024/01/23 10:10:56;;;;;;;23.98;3.40;;;7.20;99.90;;;;;;4852956;29;20328;-72
2024/01/23 10:13:22;;;;;;;20.17;4.13;;;7.20;99.90;;;;;;4869294;29;20398;-74
2024/01/23 10:15:51;;;;;;;17.42;3.30;;;7.30;99.90;;;;;;4861731;29;20053;-75
2024/01/23 10:18:16;;;;;;;34.05;7.72;;;7.30;99.90;;;;;;4862480;29;20045;-74
2024/01/23 10:20:42;;;;;;;19.45;3.83;;;7.30;99.90;;;;;;4865165;29;20363;-74
2024/01/23 10:23:08;;;;;;;34.20;7.95;;;7.30;99.90;;;;;;4844428;29;20543;-74
2024/01/23 10:25:37;;;;;;;29.52;3.55;;;7.40;99.90;;;;;;4852024;29;20425;-74
2024/01/23 10:28:08;;;;;;;16.90;2.85;;;7.40;99.90;;;;;;4867851;29;20072;-75
2024/01/23 10:30:36;;;;;;;33.35;8.25;;;7.40;99.90;;;;;;4849785;29;20052;-74
2024/01/23 10:33:03;;;;;;;31.70;7.32;;;7.40;99.90;;;;;;4860306;29;20045;-74
2024/01/23 10:35:33;;;;;;;34.97;8.93;;;7.50;99.90;;;;;;4865558;29;20040;-74
2024/01/23 10:38:03;;;;;;;36.40;7.15;;;7.50;99.90;;;;;;4854923;29;20206;-74
2024/01/23 10:40:29;;;;;;;32.35;6.65;;;7.60;99.90;;;;;;4858872;29;20057;-74
2024/01/23 10:42:58;;;;;;;30.10;7.83;;;7.60;99.90;;;;;;4870078;29;20061;-74
2024/01/23 10:45:25;;;;;;;17.80;3.25;;;7.70;99.90;;;;;;4862169;29;20314;-75
2024/01/23 10:47:57;;;;;;;32.13;8.07;;;7.70;99.90;;;;;;4869897;29;20048;-75
2024/01/23 10:50:22;;;;;;;21.42;3.70;;;7.60;99.90;;;;;;4861776;29;20056;-74
2024/01/23 10:52:49;;;;;;;31.55;7.28;;;7.70;99.90;;;;;;4841617;29;20049;-74
2024/01/23 10:55:21;;;;;;;24.67;3.47;;;7.60;99.90;;;;;;4848545;29;20159;-74
2024/01/23 10:57:50;;;;;;;33.95;7.78;;;7.70;99.90;;;;;;4864196;29;20049;-74
2024/01/23 11:00:18;;;;;;;29.27;7.00;;;7.70;99.90;;;;;;4855825;29;20048;-74
2024/01/23 11:02:50;;;;;;;30.50;7.25;;;7.80;99.90;;;;;;4855599;29;20101;-74
2024/01/23 11:05:20;;;;;;;35.33;7.65;;;7.80;99.90;;;;;;4857538;29;20060;-74
2024/01/23 11:07:55;;;;;;;28.95;7.70;;;7.90;99.90;;;;;;4864914;29;20063;-74
2024/01/23 11:10:28;;;;;;;29.23;7.03;;;7.80;99.90;;;;;;4855753;29;20098;-74
2024/01/23 11:13:23;;;;;;;32.13;7.22;;;7.80;99.90;;;;;;4840497;29;20056;-74
2024/01/23 11:15:49;;;;;;;18.92;3.35;;;7.80;99.90;;;;;;4843032;29;20057;-74
2024/01/23 11:18:28;;;;;;;29.92;6.85;;;7.70;99.90;;;;;;4841167;29;20048;-74
2024/01/23 11:21:03;;;;;;;29.98;7.20;;;7.80;99.90;;;;;;4857392;29;20067;-74
2024/01/23 11:23:29;;;;;;;29.40;7.75;;;7.80;99.90;;;;;;4866583;29;20144;-74
2024/01/23 11:26:01;;;;;;;28.77;7.88;;;7.90;99.90;;;;;;4857203;29;20132;-74
2024/01/23 11:28:28;;;;;;;29.58;7.00;;;7.90;99.90;;;;;;4852523;29;20060;-74
2024/01/23 11:31:19;;;;;;;11.88;2.45;;;7.90;99.90;;;;;;4863967;29;20581;-75
2024/01/23 11:33:45;;;;;;;28.17;4.43;;;7.90;99.90;;;;;;4856334;29;20069;-74
2024/01/23 11:36:22;;;;;;;33.67;7.23;;;7.90;99.90;;;;;;4840090;29;20076;-74
2024/01/23 11:38:49;;;;;;;33.97;7.15;;;8.00;99.90;;;;;;4857060;29;20287;-74
2024/01/23 11:41:24;;;;;;;29.63;6.28;;;8.00;99.90;;;;;;4864652;29;20053;-74
2024/01/23 11:44:01;;;;;;;31.50;8.05;;;8.10;99.90;;;;;;4858091;29;20048;-74
2024/01/23 11:46:27;;;;;;;30.52;7.40;;;8.10;99.90;;;;;;4857059;29;20054;-74
2024/01/23 11:48:54;;;;;;;31.85;6.65;;;8.10;99.90;;;;;;4847673;29;20128;-74
2024/01/23 11:51:20;;;;;;;34.33;7.15;;;8.20;99.90;;;;;;4845941;29;20060;-74
2024/01/23 11:53:47;;;;;;;28.47;7.37;;;8.20;99.90;;;;;;4860838;29;20053;-74
2024/01/23 11:56:14;;;;;;;16.63;3.40;;;8.20;99.90;;;;;;4871636;29;20310;-75
2024/01/23 11:58:43;;;;;;;31.33;7.07;;;8.30;99.90;;;;;;4856882;29;20096;-75
2024/01/23 12:01:12;;;;;;;27.60;7.72;;;8.40;99.90;;;;;;4864190;29;20057;-75
2024/01/23 12:03:46;;;;;;;32.80;7.78;;;8.40;99.90;;;;;;4871365;29;20052;-74
2024/01/23 12:06:12;;;;;;;29.02;6.93;;;8.40;99.90;;;;;;4859767;29;20541;-76
2024/01/23 12:08:38;;;;;;;32.38;7.03;;;8.40;99.90;;;;;;4869990;29;20048;-79
2024/01/23 12:11:04;;;;;;;28.70;6.55;;;8.50;99.90;;;;;;4874336;29;20044;-75
2024/01/23 12:13:29;;;;;;;14.38;3.00;;;8.40;99.90;;;;;;4867324;29;20044;-80
2024/01/23 12:15:55;;;;;;;31.55;7.05;;;8.40;99.90;;;;;;4873974;29;20037;-74
2024/01/23 12:18:24;;;;;;;31.13;7.32;;;8.40;99.90;;;;;;4862982;29;20136;-75
2024/01/23 12:20:54;;;;;;;31.10;7.47;;;8.50;99.90;;;;;;4878093;29;20048;-78
2024/01/23 12:23:20;;;;;;;30.52;7.53;;;8.50;99.90;;;;;;4881931;29;20045;-80
2024/01/23 12:25:46;;;;;;;27.48;6.47;;;8.50;99.90;;;;;;4842814;29;20092;-81
2024/01/23 12:28:12;;;;;;;23.13;6.72;;;8.50;99.90;;;;;;4846982;29;20053;-78
2024/01/23 12:30:38;;;;;;;29.23;6.60;;;8.50;99.90;;;;;;4853105;29;20048;-79
2024/01/23 12:33:05;;;;;;;27.67;6.30;;;8.50;99.90;;;;;;4857674;29;20138;-78
2024/01/23 12:35:31;;;;;;;21.35;3.50;;;8.50;99.90;;;;;;4850644;29;20069;-78
2024/01/23 12:37:56;;;;;;;27.10;6.70;;;8.50;99.90;;;;;;4864156;29;20129;-76
2024/01/23 12:40:22;;;;;;;25.35;6.43;;;8.50;99.90;;;;;;4867109;29;20230;-76
2024/01/23 12:42:49;;;;;;;26.95;6.50;;;8.60;99.90;;;;;;4874295;29;20053;-77
2024/01/23 12:45:17;;;;;;;30.75;6.78;;;8.50;99.90;;;;;;4847133;29;20494;-77